Decoded Metar for WBGB (BINTULU in MALAYSIA) (IATA:BTU) | Meteo·Mobile Aviation Weather
aviador You're here:

WBGB Decoded Metar

BINTULU in MALAYSIA
Report Time2018-10-23 11:00:00
UTC Time2018-10-23 12:09:57
Flight Rules Old
WindVRB at 03 kt
Visibility9999 m
Phenomena:N/A
Clouds:Few CB 015 Hf
Broken 300 Hf
Expected CloudBase > 1,600 ft AGL from Temp-Dew spread
Ceiling30,000 ft
Temp29°C (ISA +14)
Dew Point25°C (79% RH)
Heat Index34.5°C
QNH1008 hPa
Density Alt2,211 ft
Elevation16 ft
Report Wrong Elevation
Raw Report
METAR WBGB 231100Z VRB03KT 9999 FEW015CB BKN300 29/25 Q1008=

Extra information for WBGB:More info

Metar Taf Metar & Taf Last 4 Metars F.Rules Stats Wind Profile Meteogram Temp Stats Airport Information Weather charts Add Link Nearby VenuesMetar ALERT Operation Metar Decoded Social comments